Time;durP1;ratioP1;P1;durP2;ratioP2;P2;SDS_P1;SDS_P2;PMS_P1;PMS_P2;Temp;Humidity;BMP_temperature;BMP_pressure;BME280_temperature;BME280_humidity;BME280_pressure;Samples;Min_cycle;Max_cycle;Signal;HPM_P1;HPM_P2
2022/08/03 00:01:51;;;;;;;8.33;3.47;;;20.00;99.90;;;;;;5137315;27;20368;-71
2022/08/03 00:04:17;;;;;;;10.20;3.30;;;20.00;99.90;;;;;;5136989;27;20383;-71
2022/08/03 00:06:42;;;;;;;11.27;4.03;;;20.00;99.90;;;;;;5137692;27;20452;-71
2022/08/03 00:09:09;;;;;;;6.27;3.60;;;19.90;99.90;;;;;;5137210;27;20039;-71
2022/08/03 00:11:35;;;;;;;9.23;3.47;;;20.00;99.90;;;;;;5136864;27;20093;-71
2022/08/03 00:14:02;;;;;;;11.63;3.80;;;20.00;99.90;;;;;;5137036;27;20047;-71
2022/08/03 00:16:27;;;;;;;9.97;3.43;;;20.00;99.90;;;;;;5136762;27;20047;-71
2022/08/03 00:18:53;;;;;;;12.77;4.23;;;19.90;99.90;;;;;;5137101;27;20059;-71
2022/08/03 00:21:19;;;;;;;8.17;3.40;;;19.90;99.90;;;;;;5136626;27;20047;-71
2022/08/03 00:23:44;;;;;;;16.33;3.90;;;19.90;99.90;;;;;;5136935;27;20125;-71
2022/08/03 00:26:10;;;;;;;7.47;3.37;;;19.90;99.90;;;;;;5136850;27;20054;-71
2022/08/03 00:28:36;;;;;;;13.97;3.93;;;19.80;99.90;;;;;;5136430;27;20382;-71
2022/08/03 00:31:02;;;;;;;10.43;3.50;;;19.80;99.90;;;;;;5136615;27;20084;-71
2022/08/03 00:33:27;;;;;;;8.77;4.17;;;19.80;99.90;;;;;;5136310;27;20065;-71
2022/08/03 00:35:53;;;;;;;9.23;3.70;;;19.80;99.90;;;;;;5136621;27;20083;-71
2022/08/03 00:38:19;;;;;;;7.97;3.40;;;19.80;99.90;;;;;;5136212;27;20066;-71
2022/08/03 00:40:45;;;;;;;9.33;3.00;;;19.80;99.90;;;;;;5136508;27;20475;-71
2022/08/03 00:43:11;;;;;;;8.50;3.43;;;19.80;99.90;;;;;;5136493;27;20036;-71
2022/08/03 00:45:41;;;;;;;8.50;3.47;;;19.80;99.90;;;;;;5117928;27;20043;-71
2022/08/03 00:48:08;;;;;;;11.07;3.60;;;19.80;99.90;;;;;;5136439;27;20039;-71
2022/08/03 00:50:40;;;;;;;9.33;3.80;;;19.80;99.90;;;;;;5136056;27;20478;-71
2022/08/03 00:53:08;;;;;;;8.83;3.37;;;19.80;99.90;;;;;;5136400;27;20089;-71
2022/08/03 00:55:36;;;;;;;9.50;4.27;;;19.80;99.90;;;;;;5135594;27;20047;-71
2022/08/03 00:58:05;;;;;;;10.57;4.00;;;19.80;99.90;;;;;;5136078;27;20141;-71
2022/08/03 01:00:35;;;;;;;7.17;3.17;;;19.80;99.90;;;;;;5117455;27;20431;-71
2022/08/03 01:03:01;;;;;;;10.00;3.40;;;19.70;99.90;;;;;;5136055;27;20043;-71
2022/08/03 01:05:27;;;;;;;8.87;2.90;;;19.70;99.90;;;;;;5135506;27;20502;-71
2022/08/03 01:08:14;;;;;;;8.87;3.17;;;19.70;99.90;;;;;;5136142;27;20122;-71
2022/08/03 01:11:01;;;;;;;11.30;3.47;;;19.70;99.90;;;;;;5135806;27;20395;-71
2022/08/03 01:13:48;;;;;;;8.67;2.77;;;19.60;99.90;;;;;;5135776;27;20047;-71
2022/08/03 01:16:17;;;;;;;8.00;2.93;;;19.60;99.90;;;;;;5135950;27;20047;-71
2022/08/03 01:19:17;;;;;;;6.23;3.00;;;19.60;99.90;;;;;;5135329;27;20077;-71
2022/08/03 01:21:56;;;;;;;6.37;2.40;;;19.60;99.90;;;;;;5066057;27;20062;-71
2022/08/03 01:24:41;;;;;;;8.87;3.10;;;19.60;99.90;;;;;;5135579;27;20047;-71
2022/08/03 01:27:17;;;;;;;9.70;2.92;;;19.60;99.90;;;;;;5135827;27;20126;-70
2022/08/03 01:30:06;;;;;;;12.40;3.20;;;19.50;99.90;;;;;;5135322;27;20046;-71
2022/08/03 01:32:45;;;;;;;10.20;2.73;;;19.60;99.90;;;;;;5135421;27;20081;-71
2022/08/03 01:35:21;;;;;;;7.03;3.03;;;19.50;99.90;;;;;;5135686;27;20043;-71
2022/08/03 01:37:56;;;;;;;9.60;2.63;;;19.40;99.90;;;;;;5135224;27;20242;-71
2022/08/03 01:40:25;;;;;;;12.10;2.60;;;19.50;99.90;;;;;;5135423;27;20043;-71
2022/08/03 01:42:53;;;;;;;7.60;2.47;;;19.40;99.90;;;;;;5135531;27;20054;-71
2022/08/03 01:45:20;;;;;;;9.83;3.50;;;19.40;99.90;;;;;;5135225;27;20239;-71
2022/08/03 01:47:48;;;;;;;7.93;2.70;;;19.40;99.90;;;;;;5134949;27;20095;-71
2022/08/03 01:50:15;;;;;;;8.53;2.53;;;19.40;99.90;;;;;;5135018;27;20078;-71
2022/08/03 01:52:43;;;;;;;6.93;2.37;;;19.40;99.90;;;;;;5134905;27;20051;-71
2022/08/03 01:55:11;;;;;;;7.20;2.33;;;19.40;99.90;;;;;;5135077;27;20130;-71
2022/08/03 01:57:39;;;;;;;10.73;2.80;;;19.40;99.90;;;;;;5116456;27;20243;-71
2022/08/03 02:00:08;;;;;;;11.70;2.80;;;19.30;99.90;;;;;;5135284;27;20047;-71
2022/08/03 02:02:35;;;;;;;7.77;2.83;;;19.30;99.90;;;;;;5134652;27;20039;-71
2022/08/03 02:05:05;;;;;;;10.13;2.63;;;19.30;99.90;;;;;;5135095;27;20054;-71
2022/08/03 02:07:33;;;;;;;8.90;2.60;;;19.30;99.90;;;;;;5134700;27;20433;-71
2022/08/03 02:10:01;;;;;;;8.43;2.40;;;19.30;99.90;;;;;;5134813;27;20039;-71
2022/08/03 02:12:31;;;;;;;9.23;2.93;;;19.30;99.90;;;;;;5133982;27;20100;-75
2022/08/03 02:14:59;;;;;;;12.17;2.87;;;19.20;99.90;;;;;;5134694;27;20039;-71
2022/08/03 02:17:26;;;;;;;11.37;2.97;;;19.20;99.90;;;;;;5134299;27;20522;-71
2022/08/03 02:19:55;;;;;;;11.80;2.50;;;19.20;99.90;;;;;;5134384;27;20055;-71
2022/08/03 02:22:21;;;;;;;9.57;2.77;;;19.20;99.90;;;;;;5134591;27;20406;-71
2022/08/03 02:24:47;;;;;;;12.87;2.70;;;19.20;99.90;;;;;;5134201;27;20043;-71
2022/08/03 02:27:21;;;;;;;10.93;2.97;;;19.20;99.90;;;;;;5134441;27;20039;-71
2022/08/03 02:29:53;;;;;;;8.48;2.63;;;19.20;99.90;;;;;;5115995;27;20047;-71
2022/08/03 02:32:27;;;;;;;8.00;2.63;;;19.20;99.90;;;;;;5134526;27;20043;-71
2022/08/03 02:34:55;;;;;;;9.85;2.80;;;19.20;99.90;;;;;;5134221;27;20427;-71
2022/08/03 02:37:24;;;;;;;9.23;2.70;;;19.20;99.90;;;;;;5134297;27;20124;-71
2022/08/03 02:39:55;;;;;;;7.80;2.53;;;19.20;99.90;;;;;;5115912;27;20078;-71
2022/08/03 02:42:22;;;;;;;11.30;2.80;;;19.20;99.90;;;;;;5134266;27;20475;-71
2022/08/03 02:44:50;;;;;;;9.30;2.47;;;19.20;99.90;;;;;;5134001;27;20050;-71
2022/08/03 02:47:19;;;;;;;12.67;3.57;;;19.10;99.90;;;;;;5134197;27;20093;-71
2022/08/03 02:49:47;;;;;;;8.77;2.80;;;19.10;99.90;;;;;;5133807;27;20043;-71
2022/08/03 02:52:14;;;;;;;12.70;3.73;;;19.10;99.90;;;;;;5134198;27;20039;-71
2022/08/03 02:54:40;;;;;;;9.70;2.80;;;19.10;99.90;;;;;;5115689;27;20088;-71
2022/08/03 02:57:08;;;;;;;7.13;2.37;;;19.10;99.90;;;;;;5133965;27;20039;-71
2022/08/03 02:59:35;;;;;;;10.60;3.40;;;19.10;99.90;;;;;;5133740;27;20126;-74
2022/08/03 03:02:02;;;;;;;11.67;3.13;;;19.10;99.90;;;;;;5116174;27;20092;-71
2022/08/03 03:04:29;;;;;;;11.47;3.70;;;19.10;99.90;;;;;;5133948;27;20046;-71
2022/08/03 03:06:56;;;;;;;10.37;3.00;;;19.10;99.90;;;;;;5133528;27;20047;-71
2022/08/03 03:09:23;;;;;;;9.43;2.60;;;19.10;99.90;;;;;;5133847;27;20368;-71
2022/08/03 03:11:50;;;;;;;9.23;2.57;;;19.10;99.90;;;;;;5133545;27;20104;-71
2022/08/03 03:14:17;;;;;;;10.13;2.90;;;19.00;99.90;;;;;;5134148;28;20049;-71
2022/08/03 03:16:45;;;;;;;10.93;3.43;;;19.00;99.90;;;;;;5133585;28;20100;-71
2022/08/03 03:19:12;;;;;;;8.23;3.03;;;19.00;99.90;;;;;;5134064;28;20055;-71
2022/08/03 03:21:39;;;;;;;8.10;2.80;;;19.00;99.90;;;;;;5133576;28;20051;-71
2022/08/03 03:24:06;;;;;;;12.53;3.00;;;19.00;99.90;;;;;;5133826;27;20043;-71
2022/08/03 03:26:33;;;;;;;9.03;3.23;;;19.00;99.90;;;;;;5137826;27;20058;-71
2022/08/03 03:29:01;;;;;;;12.40;3.53;;;18.90;99.90;;;;;;5137641;27;20039;-71
2022/08/03 03:31:27;;;;;;;14.57;3.70;;;18.90;99.90;;;;;;5138098;27;20051;-71
2022/08/03 03:33:53;;;;;;;17.90;2.87;;;18.90;99.90;;;;;;5137638;27;20051;-71
2022/08/03 03:36:19;;;;;;;8.37;3.17;;;18.90;99.90;;;;;;5119338;27;20390;-71
2022/08/03 03:38:45;;;;;;;7.80;2.57;;;18.90;99.90;;;;;;5137755;27;20039;-71
2022/08/03 03:41:11;;;;;;;11.40;2.73;;;18.80;99.90;;;;;;5119585;27;20050;-71
2022/08/03 03:43:36;;;;;;;14.13;3.80;;;18.80;99.90;;;;;;5137707;27;20083;-71
2022/08/03 03:46:03;;;;;;;9.47;3.10;;;18.80;99.90;;;;;;5119155;27;20039;-71
2022/08/03 03:48:29;;;;;;;16.93;4.63;;;18.80;99.90;;;;;;5137553;27;20047;-71
2022/08/03 03:50:56;;;;;;;11.53;2.70;;;18.80;99.90;;;;;;5136934;27;20051;-71
2022/08/03 03:53:21;;;;;;;13.30;3.90;;;18.80;99.90;;;;;;5137384;27;20479;-71
2022/08/03 03:55:47;;;;;;;10.07;2.87;;;18.80;99.90;;;;;;5137132;27;20043;-71
2022/08/03 03:58:13;;;;;;;9.13;3.03;;;18.70;99.90;;;;;;5102177;27;20104;-71
2022/08/03 04:00:41;;;;;;;9.67;3.37;;;18.70;99.90;;;;;;5137349;27;20111;-71
2022/08/03 04:03:08;;;;;;;8.03;3.57;;;18.70;99.90;;;;;;5137211;27;20043;-71
2022/08/03 04:11:19;;;;;;;15.02;3.65;;;18.70;99.90;;;;;;5118764;27;20406;-71
2022/08/03 04:13:48;;;;;;;10.00;3.80;;;18.70;99.90;;;;;;5137039;27;20058;-71
2022/08/03 04:16:16;;;;;;;12.10;3.10;;;18.70;99.90;;;;;;5119109;27;20061;-71
2022/08/03 04:18:47;;;;;;;9.73;3.30;;;18.70;99.90;;;;;;5136905;27;20058;-71
2022/08/03 04:21:15;;;;;;;11.63;3.33;;;18.70;99.90;;;;;;5137133;27;20104;-71
2022/08/03 04:23:45;;;;;;;13.00;3.80;;;18.70;99.90;;;;;;5136801;27;20042;-71
2022/08/03 04:26:14;;;;;;;11.30;3.27;;;18.70;99.90;;;;;;5136423;27;20498;-71
2022/08/03 04:28:44;;;;;;;12.00;3.90;;;18.70;99.90;;;;;;5136791;27;20178;-71
2022/08/03 04:31:11;;;;;;;9.07;3.20;;;18.70;99.90;;;;;;5118327;27;20573;-71
2022/08/03 04:33:38;;;;;;;12.77;3.97;;;18.70;99.90;;;;;;5136695;27;20043;-71
2022/08/03 04:36:06;;;;;;;11.93;3.73;;;18.80;99.90;;;;;;5100557;27;20439;-71
2022/08/03 04:38:38;;;;;;;13.10;3.93;;;18.80;99.90;;;;;;5136780;27;20046;-71
2022/08/03 04:41:05;;;;;;;10.60;3.27;;;18.80;99.90;;;;;;5136404;27;20371;-71
2022/08/03 04:43:33;;;;;;;9.50;3.30;;;18.80;99.90;;;;;;5136543;27;20043;-71
2022/08/03 04:46:00;;;;;;;9.50;3.40;;;18.80;99.90;;;;;;5117834;27;20151;-71
2022/08/03 04:48:27;;;;;;;15.13;3.47;;;18.80;99.90;;;;;;5136149;27;20502;-71
2022/08/03 04:50:53;;;;;;;10.87;3.50;;;18.90;99.90;;;;;;5136161;27;20070;-71
2022/08/03 04:53:19;;;;;;;11.03;3.07;;;18.90;99.90;;;;;;5136458;27;20047;-71
2022/08/03 04:55:45;;;;;;;10.50;3.77;;;18.90;99.90;;;;;;5136276;27;20364;-71
2022/08/03 04:58:11;;;;;;;9.93;4.43;;;18.90;99.90;;;;;;5117667;27;20173;-71
2022/08/03 05:00:37;;;;;;;10.57;3.30;;;18.90;99.90;;;;;;5118046;27;20047;-71
2022/08/03 05:03:03;;;;;;;12.20;3.73;;;18.90;99.90;;;;;;5117771;27;20050;-71
2022/08/03 05:05:28;;;;;;;13.43;4.17;;;18.90;99.90;;;;;;5136073;27;20043;-71
2022/08/03 05:07:55;;;;;;;12.90;3.63;;;18.90;99.90;;;;;;5135749;27;20053;-71
2022/08/03 05:10:20;;;;;;;11.23;3.63;;;19.00;99.90;;;;;;5117910;27;20046;-71
2022/08/03 05:12:47;;;;;;;10.90;3.30;;;19.00;99.90;;;;;;5135701;27;20167;-71
2022/08/03 05:15:14;;;;;;;13.17;3.67;;;19.10;99.90;;;;;;5135707;27;20089;-71
2022/08/03 05:17:40;;;;;;;9.00;3.50;;;19.10;99.90;;;;;;5135368;27;20112;-69
2022/08/03 05:20:06;;;;;;;14.17;3.43;;;19.20;99.90;;;;;;5135584;27;20055;-71
2022/08/03 05:22:32;;;;;;;11.43;3.13;;;19.20;99.90;;;;;;5117843;27;20142;-70
2022/08/03 05:24:59;;;;;;;11.87;3.87;;;19.30;99.90;;;;;;5135580;27;20157;-71
2022/08/03 05:27:25;;;;;;;13.33;3.43;;;19.40;99.90;;;;;;5117565;27;20042;-70
2022/08/03 05:29:51;;;;;;;9.60;3.10;;;19.50;99.90;;;;;;5135539;27;20047;-70
2022/08/03 05:32:17;;;;;;;10.30;3.33;;;19.50;99.90;;;;;;5135231;27;20039;-70
2022/08/03 05:34:43;;;;;;;15.03;3.97;;;19.60;99.90;;;;;;5135596;27;20039;-70
2022/08/03 05:37:09;;;;;;;12.80;3.30;;;19.70;99.90;;;;;;5135142;27;20054;-71
2022/08/03 05:39:35;;;;;;;13.03;3.77;;;19.70;99.90;;;;;;5135430;27;20080;-70
2022/08/03 05:42:01;;;;;;;9.93;3.43;;;19.80;99.90;;;;;;5135111;27;20039;-71
2022/08/03 05:44:27;;;;;;;11.40;3.40;;;20.00;99.90;;;;;;5117182;27;20395;-71
2022/08/03 05:46:53;;;;;;;12.67;3.43;;;20.10;99.90;;;;;;5134442;27;20518;-71
2022/08/03 05:49:19;;;;;;;9.07;3.10;;;20.30;99.90;;;;;;5134480;27;20047;-71
2022/08/03 05:51:45;;;;;;;15.57;3.80;;;20.50;99.90;;;;;;5135246;27;20039;-71
2022/08/03 05:54:11;;;;;;;9.67;3.27;;;20.70;99.90;;;;;;5135017;27;20046;-71
2022/08/03 05:56:37;;;;;;;14.37;4.03;;;21.00;99.90;;;;;;5135050;27;20043;-71
2022/08/03 05:59:02;;;;;;;12.37;3.23;;;21.70;99.90;;;;;;5134410;27;20593;-71
2022/08/03 06:01:30;;;;;;;11.57;2.77;;;22.40;99.90;;;;;;5135057;27;20083;-71
2022/08/03 06:03:56;;;;;;;11.57;3.13;;;23.30;99.90;;;;;;5116859;27;20051;-71
2022/08/03 06:06:21;;;;;;;13.87;3.43;;;23.90;99.90;;;;;;5116569;27;20047;-71
2022/08/03 06:08:47;;;;;;;12.17;3.00;;;24.10;99.90;;;;;;5135006;27;20091;-71
2022/08/03 06:11:13;;;;;;;11.50;3.40;;;24.60;99.90;;;;;;5134535;27;20118;-71
2022/08/03 06:13:39;;;;;;;14.57;3.50;;;25.10;99.90;;;;;;5134786;27;20043;-71
2022/08/03 06:16:05;;;;;;;9.30;2.70;;;25.70;99.90;;;;;;5134210;27;20406;-71
2022/08/03 06:18:31;;;;;;;11.97;3.40;;;26.60;99.90;;;;;;5134560;27;20055;-71
2022/08/03 06:20:57;;;;;;;12.17;3.27;;;;;;;;;;5134540;27;20047;-72
2022/08/03 06:23:23;;;;;;;10.77;3.37;;;;;;;;;;5134242;27;20130;-71
2022/08/03 06:25:49;;;;;;;15.93;3.70;;;;;;;;;;5134467;27;20130;-72
2022/08/03 06:28:17;;;;;;;15.63;4.33;;;;;;;;;;5134256;27;20180;-72
2022/08/03 06:30:43;;;;;;;14.37;4.17;;;;;;;;;;5134508;27;20472;-72
2022/08/03 06:33:09;;;;;;;12.43;3.40;;;;;;;;;;5116154;27;20450;-71
2022/08/03 06:35:35;;;;;;;13.90;4.03;;;;;;;;;;5134501;27;20116;-72
2022/08/03 06:38:02;;;;;;;13.63;3.60;;;;;;;;;;5134024;27;20089;-76
2022/08/03 06:40:30;;;;;;;13.70;4.13;;;;;;;;;;5134555;27;20134;-72
2022/08/03 06:42:56;;;;;;;14.45;3.80;;;;;;;;;;5134380;27;20043;-71
2022/08/03 06:45:23;;;;;;;12.85;3.78;;;;;;;;;;5134100;27;20051;-72
2022/08/03 06:47:59;;;;;;;14.77;3.85;;;;;;;;;;5134206;27;20043;-72
2022/08/03 06:50:25;;;;;;;12.07;3.92;;;;;;;;;;5134006;27;20053;-71
2022/08/03 06:52:51;;;;;;;11.38;4.00;;;;;;;;;;5134088;27;20047;-72
2022/08/03 06:55:20;;;;;;;12.30;4.32;;;;;;;;;;5133787;27;20047;-71
2022/08/03 06:57:46;;;;;;;13.05;4.10;;;;;;;;;;5134082;27;20050;-71
2022/08/03 07:00:13;;;;;;;14.30;5.03;;;;;;;;;;5133468;27;20188;-71
2022/08/03 07:02:39;;;;;;;12.07;4.38;;;;;;;;;;5134140;27;20047;-71
2022/08/03 07:05:06;;;;;;;12.65;4.53;;;;;;;;;;5133717;27;20123;-73
2022/08/03 07:07:32;;;;;;;17.17;4.47;;;;;;;;;;5133996;27;20117;-74
2022/08/03 07:09:58;;;;;;;16.42;4.18;;;;;;;;;;5133901;27;20491;-74
2022/08/03 07:12:25;;;;;;;13.13;4.63;;;30.30;76.30;;;;;;5133633;27;20439;-71
2022/08/03 07:14:51;;;;;;;14.55;4.68;;;30.10;78.10;;;;;;5133929;28;20039;-71
2022/08/03 07:17:17;;;;;;;11.77;3.90;;;28.60;84.90;;;;;;5133376;28;20426;-71
2022/08/03 07:19:43;;;;;;;14.20;3.83;;;28.60;86.00;;;;;;5115210;28;20047;-72
2022/08/03 07:22:10;;;;;;;14.77;4.43;;;28.30;91.70;;;;;;5133462;28;20053;-73
2022/08/03 07:24:36;;;;;;;16.63;4.05;;;;;;;;;;5115728;28;20107;-71
2022/08/03 07:27:02;;;;;;;14.02;4.25;;;27.90;93.90;;;;;;5133734;28;20506;-72
2022/08/03 07:29:28;;;;;;;12.65;4.43;;;27.50;95.30;;;;;;5115346;28;20087;-72
2022/08/03 07:31:53;;;;;;;15.82;4.35;;;26.90;99.00;;;;;;5133727;28;20042;-72
2022/08/03 07:34:19;;;;;;;14.73;4.18;;;26.70;99.10;;;;;;5133453;28;20152;-72
2022/08/03 07:36:45;;;;;;;13.55;4.50;;;26.50;99.90;;;;;;5133695;28;20051;-72
2022/08/03 07:39:10;;;;;;;12.38;4.72;;;26.20;99.90;;;;;;5133252;28;20475;-72
2022/08/03 07:41:36;;;;;;;15.55;4.63;;;26.30;99.90;;;;;;5134242;28;20121;-72
2022/08/03 07:44:02;;;;;;;14.23;5.18;;;26.30;99.90;;;;;;5133533;28;20394;-72
2022/08/03 07:46:28;;;;;;;10.93;5.10;;;;;;;;;;5133366;28;20050;-72
2022/08/03 07:48:54;;;;;;;15.40;4.88;;;28.20;99.90;;;;;;5133671;28;20534;-72
2022/08/03 07:51:19;;;;;;;14.20;4.85;;;29.90;95.50;;;;;;5133263;28;20122;-73
2022/08/03 07:53:45;;;;;;;12.90;4.93;;;;;;;;;;5133509;28;20394;-73
2022/08/03 07:56:11;;;;;;;18.27;5.68;;;31.90;79.90;;;;;;5132976;28;20517;-77
2022/08/03 07:58:37;;;;;;;12.15;4.88;;;32.80;71.90;;;;;;5133636;28;20043;-73
2022/08/03 08:01:02;;;;;;;19.83;5.85;;;33.50;67.80;;;;;;5133415;28;20047;-73
2022/08/03 08:03:28;;;;;;;12.95;4.82;;;;;;;;;;5133096;28;20047;-72
2022/08/03 08:05:55;;;;;;;14.10;5.72;;;;;;;;;;5098296;28;20258;-72
2022/08/03 08:08:21;;;;;;;12.77;4.63;;;;;;;;;;5133094;28;20104;-72
2022/08/03 08:10:47;;;;;;;17.27;4.65;;;;;;;;;;5134092;27;20047;-72
2022/08/03 08:13:14;;;;;;;15.52;6.05;;;;;;;;;;5137021;27;20039;-75
2022/08/03 08:15:40;;;;;;;13.65;5.50;;;;;;;;;;5136986;27;20130;-73
2022/08/03 08:18:06;;;;;;;16.42;5.32;;;;;;;;;;5136657;27;20051;-72
2022/08/03 08:20:34;;;;;;;16.17;6.10;;;;;;;;;;5118402;27;20344;-73
2022/08/03 08:23:01;;;;;;;13.13;5.15;;;;;;;;;;5137154;27;20051;-72
2022/08/03 08:25:27;;;;;;;14.30;6.00;;;32.90;56.50;;;;;;5136645;27;20043;-72
2022/08/03 08:27:53;;;;;;;17.30;5.40;;;;;;;;;;5136837;27;20035;-72
2022/08/03 08:30:21;;;;;;;16.58;5.75;;;32.10;59.30;;;;;;5118639;27;20054;-74
2022/08/03 08:32:47;;;;;;;15.68;5.18;;;31.90;69.60;;;;;;5136748;27;20051;-73
2022/08/03 08:35:14;;;;;;;14.32;6.03;;;31.40;61.80;;;;;;5136838;27;20047;-76
2022/08/03 08:37:40;;;;;;;15.45;6.03;;;30.30;63.80;;;;;;5136433;27;20039;-79
2022/08/03 08:40:06;;;;;;;14.25;5.30;;;30.20;64.50;;;;;;5136464;27;20177;-77
2022/08/03 08:42:33;;;;;;;15.57;6.20;;;;;;;;;;5136275;27;20069;-78
2022/08/03 08:45:04;;;;;;;17.95;6.57;;;29.40;77.30;;;;;;5136538;27;20042;-78
2022/08/03 08:47:31;;;;;;;16.80;6.22;;;29.40;76.90;;;;;;5136200;27;20104;-75
2022/08/03 08:49:58;;;;;;;14.77;5.93;;;29.30;78.10;;;;;;5136408;27;20134;-77
2022/08/03 08:52:25;;;;;;;19.27;7.22;;;;;;;;;;5136205;27;20046;-82
2022/08/03 08:54:56;;;;;;;18.48;6.72;;;28.90;82.00;;;;;;5136729;27;20047;-81
2022/08/03 08:57:43;;;;;;;15.38;5.75;;;28.80;85.90;;;;;;5136285;27;20047;-76
2022/08/03 09:00:12;;;;;;;15.52;6.55;;;28.80;89.50;;;;;;5135403;27;20082;-77
2022/08/03 09:02:41;;;;;;;15.52;6.28;;;28.50;90.00;;;;;;5135972;27;20051;-78
2022/08/03 09:05:18;;;;;;;14.10;5.93;;;28.30;91.10;;;;;;5136261;27;20039;-81
2022/08/03 09:07:46;;;;;;;15.57;6.57;;;28.10;92.40;;;;;;5136264;27;20496;-79
2022/08/03 09:10:17;;;;;;;18.88;6.38;;;28.00;93.50;;;;;;5136237;27;20043;-77
2022/08/03 09:12:45;;;;;;;20.30;7.32;;;28.00;93.50;;;;;;5135950;27;20156;-81
2022/08/03 09:15:25;;;;;;;19.92;7.15;;;27.80;94.20;;;;;;5136013;27;20050;-81
2022/08/03 09:17:56;;;;;;;16.10;7.03;;;27.80;95.30;;;;;;5117383;27;20059;-76
2022/08/03 09:20:23;;;;;;;14.15;7.95;;;27.70;95.70;;;;;;5117336;27;20414;-79
2022/08/03 09:22:54;;;;;;;14.77;8.10;;;27.60;96.70;;;;;;5135669;27;20050;-77
2022/08/03 09:25:28;;;;;;;14.70;7.93;;;27.50;96.70;;;;;;5117835;27;20043;-78
2022/08/03 09:27:54;;;;;;;17.65;8.38;;;27.30;97.40;;;;;;5135792;27;20043;-80
2022/08/03 09:30:20;;;;;;;14.20;8.27;;;27.20;98.10;;;;;;5135789;27;20056;-75
2022/08/03 09:32:49;;;;;;;16.90;8.98;;;27.20;98.50;;;;;;5135479;27;20122;-81
2022/08/03 09:35:14;;;;;;;17.35;7.78;;;27.10;99.20;;;;;;5117627;27;20043;-73
2022/08/03 09:37:42;;;;;;;16.63;6.90;;;27.10;99.00;;;;;;5117209;27;20073;-88
2022/08/03 09:40:34;;;;;;;20.65;7.82;;;27.10;99.40;;;;;;5084642;27;20051;-85
2022/08/03 09:43:00;;;;;;;18.00;8.30;;;27.10;99.60;;;;;;5135521;27;20126;-72
2022/08/03 09:45:27;;;;;;;17.17;8.10;;;26.90;99.90;;;;;;5116938;27;20176;-73
2022/08/03 09:47:52;;;;;;;17.95;7.93;;;26.80;99.90;;;;;;5134839;27;20126;-74
2022/08/03 09:50:18;;;;;;;16.48;8.07;;;26.70;99.90;;;;;;5134224;27;20236;-74
2022/08/03 09:52:46;;;;;;;16.13;8.10;;;26.70;99.90;;;;;;5134054;27;20039;-74
2022/08/03 09:55:13;;;;;;;19.45;7.57;;;26.70;99.90;;;;;;5134368;27;20051;-74
2022/08/03 09:57:40;;;;;;;19.65;7.55;;;26.60;99.90;;;;;;5134589;27;20042;-74
2022/08/03 10:00:10;;;;;;;26.40;8.80;;;26.70;99.90;;;;;;5134920;27;20092;-74
2022/08/03 10:02:36;;;;;;;19.02;8.60;;;26.90;99.90;;;;;;5134683;27;20050;-74
2022/08/03 10:05:02;;;;;;;14.55;7.03;;;27.00;99.90;;;;;;5134977;27;20122;-73
2022/08/03 10:07:28;;;;;;;21.27;7.80;;;27.00;99.90;;;;;;5134665;27;20054;-74
2022/08/03 10:09:56;;;;;;;22.55;7.63;;;27.10;99.90;;;;;;5134885;27;20399;-74
2022/08/03 10:12:23;;;;;;;20.33;7.83;;;27.00;99.90;;;;;;5134706;27;20051;-73
2022/08/03 10:14:49;;;;;;;20.20;7.63;;;27.00;99.90;;;;;;5116402;27;20038;-73
2022/08/03 10:17:15;;;;;;;20.98;8.25;;;27.00;99.90;;;;;;5134478;27;20103;-73
2022/08/03 10:19:41;;;;;;;20.88;8.65;;;27.00;99.90;;;;;;5134450;27;20055;-74
2022/08/03 10:22:17;;;;;;;17.58;7.97;;;27.00;99.90;;;;;;5134280;27;20051;-73
2022/08/03 10:24:59;;;;;;;20.10;7.68;;;27.10;99.90;;;;;;5134409;27;20060;-73
2022/08/03 10:27:31;;;;;;;20.90;8.45;;;27.10;99.90;;;;;;5134543;27;20078;-73
2022/08/03 10:30:01;;;;;;;20.40;8.47;;;27.00;99.90;;;;;;5134765;27;20057;-74
2022/08/03 10:32:32;;;;;;;15.63;8.40;;;27.00;99.90;;;;;;5134456;27;20093;-73
2022/08/03 10:35:19;;;;;;;26.53;9.57;;;26.90;99.90;;;;;;5133942;27;20502;-73
2022/08/03 10:37:54;;;;;;;18.30;7.97;;;26.80;99.90;;;;;;5133847;27;20506;-73
2022/08/03 10:40:22;;;;;;;16.90;7.77;;;26.60;99.90;;;;;;5117120;27;20047;-73
2022/08/03 10:42:51;;;;;;;21.53;7.20;;;26.50;99.90;;;;;;5134059;27;20410;-73
2022/08/03 10:45:25;;;;;;;25.00;8.70;;;26.50;99.90;;;;;;5134304;27;20047;-74
2022/08/03 10:47:52;;;;;;;22.40;7.65;;;26.50;99.90;;;;;;5115799;27;20079;-73
2022/08/03 10:50:21;;;;;;;20.13;6.67;;;26.50;99.90;;;;;;5134254;27;20055;-73
2022/08/03 10:52:57;;;;;;;15.97;7.40;;;26.60;99.90;;;;;;5133999;27;20047;-74
2022/08/03 10:58:46;;;;;;;19.83;6.67;;;26.60;99.90;;;;;;5134104;27;20126;-74
2022/08/03 11:01:12;;;;;;;25.67;7.57;;;26.60;99.90;;;;;;5121072;27;20051;-75
2022/08/03 11:03:53;;;;;;;22.47;7.40;;;26.60;99.90;;;;;;5133822;27;20047;-75
2022/08/03 11:06:20;;;;;;;17.20;6.27;;;26.50;99.90;;;;;;5133995;27;20475;-77
2022/08/03 11:08:48;;;;;;;20.70;6.83;;;26.50;99.90;;;;;;5133596;27;20130;-73
2022/08/03 11:11:17;;;;;;;23.13;5.53;;;26.50;99.90;;;;;;5115996;28;20053;-72
2022/08/03 11:14:04;;;;;;;19.87;6.43;;;26.40;99.90;;;;;;5133628;27;20039;-73
2022/08/03 11:16:33;;;;;;;18.47;5.90;;;26.40;99.90;;;;;;5133960;28;20039;-73
2022/08/03 11:19:02;;;;;;;20.67;6.03;;;26.30;99.90;;;;;;5114909;28;20409;-74
2022/08/03 11:21:47;;;;;;;18.77;5.80;;;26.30;99.90;;;;;;5133704;28;20145;-72
2022/08/03 11:24:31;;;;;;;;;;;26.30;99.90;;;;;;5134126;28;20054;-72
2022/08/03 11:27:19;;;;;;;22.93;6.37;;;26.30;99.90;;;;;;5133364;28;19927;-72
2022/08/03 11:29:55;;;;;;;20.50;6.47;;;26.30;99.90;;;;;;5115240;28;20486;-73
2022/08/03 11:32:36;;;;;;;20.70;5.90;;;26.30;99.90;;;;;;5133687;28;20057;-73
2022/08/03 11:35:16;;;;;;;19.27;5.73;;;26.30;99.90;;;;;;5133466;28;20053;-72
2022/08/03 11:37:56;;;;;;;17.23;5.43;;;26.30;99.90;;;;;;5133428;28;20128;-74
2022/08/03 11:40:41;;;;;;;21.40;5.63;;;26.20;99.90;;;;;;5133701;28;20087;-73
2022/08/03 11:43:08;;;;;;;;;;;26.20;99.90;;;;;;5134063;28;20482;-81
2022/08/03 11:45:35;;;;;;;23.67;6.73;;;26.20;99.90;;;;;;5134135;27;19980;-79
2022/08/03 11:48:16;;;;;;;19.73;5.53;;;26.10;99.90;;;;;;5118956;27;20088;-81
2022/08/03 11:50:44;;;;;;;23.87;5.80;;;26.10;99.90;;;;;;5137383;27;20065;-78
2022/08/03 11:53:15;;;;;;;22.60;5.80;;;26.10;99.90;;;;;;5137538;27;20055;-84
2022/08/03 11:55:43;;;;;;;18.53;5.63;;;26.10;99.90;;;;;;5137558;27;20050;-77
2022/08/03 11:58:15;;;;;;;18.47;5.17;;;26.10;99.90;;;;;;5137807;27;20427;-71
2022/08/03 12:00:41;;;;;;;19.53;4.90;;;26.10;99.90;;;;;;5137348;27;20050;-77
2022/08/03 12:03:10;;;;;;;17.47;5.30;;;26.20;99.90;;;;;;5119279;27;20047;-71
2022/08/03 12:05:39;;;;;;;19.53;5.63;;;26.20;99.90;;;;;;5137381;27;20108;-77
2022/08/03 12:08:05;;;;;;;18.27;6.37;;;26.30;99.90;;;;;;5136655;27;20509;-73
2022/08/03 12:10:31;;;;;;;20.03;5.67;;;26.20;99.90;;;;;;5118765;27;20070;-73
2022/08/03 12:13:00;;;;;;;22.83;5.67;;;26.30;99.90;;;;;;5137047;27;20132;-71
2022/08/03 12:15:32;;;;;;;18.07;5.57;;;26.40;99.90;;;;;;5137251;27;20043;-73
2022/08/03 12:18:01;;;;;;;23.43;5.53;;;26.30;99.90;;;;;;5136776;27;20051;-73
2022/08/03 12:20:30;;;;;;;17.67;5.60;;;26.40;99.90;;;;;;5136770;27;20057;-73
2022/08/03 12:23:03;;;;;;;18.90;5.97;;;26.40;99.90;;;;;;5136825;27;20045;-73
2022/08/03 12:25:29;;;;;;;19.97;5.30;;;26.40;99.90;;;;;;5137006;27;20043;-73
2022/08/03 12:28:23;;;;;;;18.40;4.90;;;26.50;99.90;;;;;;5136590;27;20045;-73
2022/08/03 12:30:50;;;;;;;16.97;5.33;;;26.50;99.90;;;;;;5136534;27;20035;-73
2022/08/03 12:33:16;;;;;;;15.10;5.13;;;26.40;99.90;;;;;;5136780;27;20506;-73
2022/08/03 12:35:42;;;;;;;21.83;6.47;;;26.40;99.90;;;;;;5118920;27;20039;-73
2022/08/03 12:38:09;;;;;;;20.30;6.50;;;26.50;99.90;;;;;;5136490;27;20050;-73
2022/08/03 12:40:35;;;;;;;20.27;6.87;;;26.40;99.90;;;;;;5118809;27;20383;-73
2022/08/03 12:43:09;;;;;;;23.33;6.40;;;26.40;99.90;;;;;;5117996;27;20103;-72
2022/08/03 12:45:35;;;;;;;26.55;8.10;;;26.40;99.90;;;;;;5136866;27;20095;-74
2022/08/03 12:48:01;;;;;;;26.27;6.70;;;26.50;99.90;;;;;;5100634;27;20126;-73
2022/08/03 12:50:30;;;;;;;19.57;5.47;;;26.50;99.90;;;;;;5136651;27;20085;-73
2022/08/03 12:52:56;;;;;;;25.03;6.83;;;26.60;99.90;;;;;;5136165;27;20050;-73
2022/08/03 12:55:26;;;;;;;23.73;7.77;;;26.70;99.90;;;;;;5136394;27;20049;-73
2022/08/03 12:57:52;;;;;;;20.10;6.70;;;26.60;99.90;;;;;;5117481;27;20058;-73
2022/08/03 13:00:18;;;;;;;21.37;6.73;;;26.70;99.90;;;;;;5136159;27;20055;-74
2022/08/03 13:02:44;;;;;;;19.63;6.43;;;26.70;99.90;;;;;;5118160;27;20122;-74
2022/08/03 13:05:12;;;;;;;20.63;6.70;;;26.70;99.90;;;;;;5117989;27;20088;-73
2022/08/03 13:07:43;;;;;;;17.03;6.07;;;26.70;99.90;;;;;;5117609;27;20042;-73